Time;durP1;ratioP1;P1;durP2;ratioP2;P2;SDS_P1;SDS_P2;PMS_P1;PMS_P2;Temp;Humidity;BMP_temperature;BMP_pressure;BME280_temperature;BME280_humidity;BME280_pressure;Samples;Min_cycle;Max_cycle;Signal;HPM_P1;HPM_P2
2021/06/28 00:00:23;;;;;;;21.90;10.65;;;;;;;24.69;59.96;98767.78;5035366;28;20045;-76
2021/06/28 00:02:52;;;;;;;19.35;10.98;;;;;;;24.65;60.19;98764.25;5035519;28;20135;-76
2021/06/28 00:05:19;;;;;;;;;;;;;;;24.52;60.46;98767.63;5035696;28;20525;-76
2021/06/28 00:07:47;;;;;;;24.98;12.43;;;;;;;24.38;60.86;98759.41;5035416;28;19921;-77
2021/06/28 00:10:22;;;;;;;18.60;11.85;;;;;;;24.18;61.84;98764.84;5035110;28;20038;-77
2021/06/28 00:12:49;;;;;;;14.45;11.80;;;;;;;24.13;61.79;98759.72;5035456;28;20040;-76
2021/06/28 00:15:18;;;;;;;23.58;12.98;;;;;;;24.25;61.58;98758.38;5035068;28;20132;-77
2021/06/28 00:17:45;;;;;;;19.88;13.88;;;;;;;24.18;61.79;98758.47;5035232;28;20041;-77
2021/06/28 00:20:12;;;;;;;23.65;14.38;;;;;;;24.14;61.89;98752.94;5034996;28;20053;-76
2021/06/28 00:22:40;;;;;;;23.92;14.30;;;;;;;24.30;61.29;98749.53;5034797;28;20045;-77
2021/06/28 00:25:09;;;;;;;22.08;13.77;;;;;;;24.40;60.80;98751.38;5034877;28;20080;-77
2021/06/28 00:27:37;;;;;;;52.88;16.33;;;;;;;24.27;61.18;98753.97;5034755;28;20043;-77
2021/06/28 00:30:10;;;;;;;31.58;15.75;;;;;;;24.27;61.45;98756.75;5033600;28;20569;-77
2021/06/28 00:32:39;;;;;;;29.13;15.82;;;;;;;24.41;60.64;98761.41;5034757;28;20045;-76
2021/06/28 00:35:06;;;;;;;45.10;15.98;;;;;;;24.55;60.32;98757.59;5034635;28;20551;-77
2021/06/28 00:37:32;;;;;;;40.05;16.27;;;;;;;24.49;60.35;98736.94;5034384;28;20041;-77
2021/06/28 00:39:59;;;;;;;24.40;14.93;;;;;;;24.46;60.61;98760.91;5034926;28;20071;-77
2021/06/28 00:42:29;;;;;;;22.00;14.60;;;;;;;24.46;60.67;98769.28;5034424;28;20037;-77
2021/06/28 00:44:55;;;;;;;30.95;15.27;;;;;;;24.38;60.83;98745.44;5034369;28;20385;-77
2021/06/28 00:47:22;;;;;;;24.65;12.98;;;;;;;24.57;60.13;98755.97;5034771;28;20494;-77
2021/06/28 00:49:48;;;;;;;20.65;13.68;;;;;;;24.66;60.21;98779.81;5034721;28;20037;-76
2021/06/28 00:52:16;;;;;;;21.58;13.50;;;;;;;24.83;59.49;98795.53;5034595;28;20033;-77
2021/06/28 00:54:43;;;;;;;21.17;14.45;;;;;;;24.78;60.20;98819.16;5034561;28;20041;-76
2021/06/28 00:57:11;;;;;;;26.88;15.85;;;;;;;24.57;60.85;98811.09;5034297;28;20426;-77
2021/06/28 00:59:39;;;;;;;20.27;14.63;;;;;;;24.34;61.74;98809.75;5033330;28;20037;-76
2021/06/28 01:02:06;;;;;;;20.45;15.27;;;;;;;24.22;61.85;98801.91;5034408;28;20045;-76
2021/06/28 01:04:32;;;;;;;23.15;15.10;;;;;;;24.19;62.30;98822.28;5034192;28;20045;-76
2021/06/28 01:06:58;;;;;;;26.02;16.38;;;;;;;23.95;63.00;98804.63;5034196;28;20112;-77
2021/06/28 01:09:24;;;;;;;21.88;14.68;;;;;;;24.15;62.70;98788.81;5034371;28;20068;-76
2021/06/28 01:11:52;;;;;;;29.98;14.77;;;;;;;24.23;62.34;98767.16;5034581;28;20053;-76
2021/06/28 01:14:17;;;;;;;;;;;;;;;24.54;61.49;98781.97;5034374;28;20056;-77
2021/06/28 01:16:44;;;;;;;57.40;16.55;;;;;;;24.52;61.16;98784.38;5049598;28;19925;-77
2021/06/28 01:19:14;;;;;;;49.28;16.92;;;;;;;24.61;61.45;98790.25;5033797;28;20567;-77
2021/06/28 01:21:41;;;;;;;33.28;15.88;;;;;;;24.37;62.13;98789.34;5033824;28;20266;-76
2021/06/28 01:24:08;;;;;;;38.65;15.65;;;;;;;24.38;62.17;98779.75;5033804;28;20079;-77
2021/06/28 01:26:35;;;;;;;21.77;14.85;;;;;;;24.67;61.19;98804.56;5033741;28;20037;-77
2021/06/28 01:29:01;;;;;;;26.60;15.65;;;;;;;24.61;61.99;98803.44;5033696;28;20498;-77
2021/06/28 01:31:39;;;;;;;24.73;15.05;;;;;;;24.37;62.18;98777.38;5033628;28;20049;-77
2021/06/28 01:34:06;;;;;;;28.35;17.52;;;;;;;24.21;63.23;98757.66;5033648;28;20132;-76
2021/06/28 01:36:41;;;;;;;26.08;16.30;;;;;;;24.07;63.61;98727.88;5033506;28;20550;-76
2021/06/28 01:41:38;;;;;;;22.85;15.48;;;;;;;24.08;63.62;98741.44;5033723;28;20383;-76
2021/06/28 01:44:04;;;;;;;27.23;14.57;;;;;;;24.25;63.00;98752.81;5032377;28;20500;-77
2021/06/28 01:46:30;;;;;;;;;;;;;;;24.42;62.34;98757.38;5034083;28;20484;-77
2021/06/28 01:48:57;;;;;;;33.53;15.73;;;;;;;24.30;62.90;98747.53;5033333;28;19921;-77
2021/06/28 01:51:24;;;;;;;34.72;16.30;;;;;;;24.31;62.63;98731.56;5033551;28;20045;-77
2021/06/28 01:53:51;;;;;;;28.10;14.60;;;;;;;24.48;62.04;98702.63;5033235;28;20042;-76
2021/06/28 01:56:18;;;;;;;28.13;14.30;;;;;;;24.50;62.04;98702.19;5032369;28;20457;-77
2021/06/28 01:58:44;;;;;;;23.20;15.20;;;;;;;24.37;62.71;98688.78;5033386;28;20041;-77
2021/06/28 02:01:11;;;;;;;56.90;15.13;;;;;;;24.41;62.32;98690.78;5033099;28;20132;-77
2021/06/28 02:03:39;;;;;;;26.25;15.25;;;;;;;24.47;62.65;98692.66;5033169;28;20046;-77
2021/06/28 02:06:06;;;;;;;26.92;15.00;;;;;;;24.66;62.21;98718.31;5032946;28;20501;-77
2021/06/28 02:08:35;;;;;;;49.35;15.70;;;;;;;24.81;61.31;98716.91;5033153;28;20111;-76
2021/06/28 02:11:04;;;;;;;31.88;14.70;;;;;;;25.03;60.79;98712.53;5032877;28;20102;-77
2021/06/28 02:13:33;;;;;;;24.83;13.13;;;;;;;25.41;59.03;98701.09;5033089;28;20041;-76
2021/06/28 02:15:59;;;;;;;21.45;13.90;;;;;;;25.53;58.73;98689.28;5033116;28;20037;-77
2021/06/28 02:18:28;;;;;;;23.98;14.73;;;;;;;25.41;59.29;98670.31;5032985;28;20297;-77
2021/06/28 02:20:56;;;;;;;33.75;16.00;;;;;;;25.14;60.55;98655.66;5048356;28;20049;-77
2021/06/28 02:23:24;;;;;;;21.77;15.15;;;;;;;25.11;60.97;98654.47;5032538;28;20068;-77
2021/06/28 02:25:56;;;;;;;26.73;15.98;;;;;;;24.85;62.43;98647.72;5032573;28;20572;-76
2021/06/28 02:28:25;;;;;;;23.88;15.13;;;;;;;24.90;62.32;98658.44;5032883;28;20124;-77
2021/06/28 02:30:52;;;;;;;19.95;14.35;;;;;;;24.94;61.70;98658.38;5032787;28;20380;-77
2021/06/28 02:33:20;;;;;;;21.25;15.35;;;;;;;24.91;62.09;98657.22;5032443;28;20030;-76
2021/06/28 02:35:46;;;;;;;26.98;14.95;;;;;;;25.11;61.21;98648.09;5032711;28;20120;-76
2021/06/28 02:38:14;;;;;;;28.98;17.05;;;;;;;25.02;61.46;98643.81;5032100;28;20054;-77
2021/06/28 02:40:41;;;;;;;26.42;16.42;;;;;;;25.03;61.89;98639.84;5032355;28;20503;-77
2021/06/28 02:43:27;;;;;;;27.02;15.85;;;;;;;24.90;62.01;98629.66;4990606;28;20169;-77
2021/06/28 02:45:57;;;;;;;27.92;16.98;;;;;;;25.12;61.67;98636.50;5031317;28;20099;-76
2021/06/28 02:48:23;;;;;;;25.70;17.45;;;;;;;25.08;61.94;98633.72;5032154;28;20271;-76
2021/06/28 02:50:50;;;;;;;23.38;15.82;;;;;;;25.08;61.80;98624.56;5031736;28;20072;-77
2021/06/28 02:53:18;;;;;;;24.63;16.30;;;;;;;25.17;61.75;98638.03;5030041;28;20053;-77
2021/06/28 02:55:46;;;;;;;34.10;17.73;;;;;;;25.20;60.72;98637.13;5032252;28;20407;-76
2021/06/28 02:58:13;;;;;;;26.98;17.15;;;;;;;25.21;60.06;98644.34;5030923;28;20498;-77
2021/06/28 03:00:40;;;;;;;34.40;16.98;;;;;;;25.07;60.84;98628.56;5032218;28;20114;-77
2021/06/28 03:03:20;;;;;;;29.42;17.00;;;;;;;25.08;60.75;98611.34;5171737;27;20547;-77
2021/06/28 03:06:00;;;;;;;29.30;15.93;;;;;;;25.21;60.42;98616.34;5078816;27;1443899;-77
2021/06/28 03:08:43;;;;;;;42.40;16.80;;;;;;;25.27;60.03;98597.88;5109648;27;20388;-77
2021/06/28 03:11:22;;;;;;;21.25;14.95;;;;;;;25.16;60.41;98592.47;5105220;27;1390801;-77
2021/06/28 03:14:00;;;;;;;27.10;15.37;;;;;;;25.14;60.41;98599.72;5081974;27;1470662;-77
2021/06/28 03:16:40;;;;;;;26.95;15.30;;;;;;;25.28;59.89;98607.81;5109634;27;20392;-77
2021/06/28 03:19:20;;;;;;;25.77;15.00;;;;;;;25.62;58.67;98610.31;5109606;27;20450;-77
2021/06/28 03:22:03;;;;;;;18.08;14.95;;;;;;;25.60;58.91;98600.81;5109679;27;20395;-77
2021/06/28 03:24:45;;;;;;;34.17;15.23;;;;;;;25.53;59.38;98598.94;5069020;28;20394;-77
2021/06/28 03:27:25;;;;;;;25.63;14.45;;;;;;;25.46;59.36;98588.69;5069100;28;20417;-77
2021/06/28 03:30:09;;;;;;;26.05;14.30;;;;;;;25.55;59.07;98588.09;5109693;27;20404;-77
2021/06/28 03:32:48;;;;;;;27.23;14.70;;;;;;;25.66;58.88;98587.84;5069156;28;20398;-77
2021/06/28 03:35:26;;;;;;;24.60;14.63;;;;;;;25.67;59.02;98597.84;5076639;27;1503264;-77
2021/06/28 03:38:07;;;;;;;26.73;13.98;;;;;;;25.48;58.94;98591.03;5069046;28;20398;-77
2021/06/28 03:40:48;;;;;;;24.08;14.68;;;;;;;25.31;59.88;98602.16;5109655;27;20392;-77
2021/06/28 03:43:28;;;;;;;31.30;16.00;;;;;;;25.24;60.15;98595.91;5130103;27;20410;-77
2021/06/28 03:46:06;;;;;;;23.95;15.27;;;;;;;25.14;60.66;98585.72;5080723;27;1395287;-77
2021/06/28 03:48:46;;;;;;;32.50;16.92;;;;;;;25.09;61.10;98592.56;5151403;27;20131;-77
2021/06/28 03:51:24;;;;;;;18.53;14.87;;;;;;;25.02;61.17;98576.72;5085393;27;1379975;-77
2021/06/28 03:54:04;;;;;;;18.63;14.65;;;;;;;25.19;60.62;98568.44;5069149;28;20448;-77
2021/06/28 03:56:42;;;;;;;37.63;17.67;;;;;;;25.30;60.38;98560.63;5090238;27;1811403;-77
2021/06/28 03:59:23;;;;;;;25.33;15.35;;;;;;;25.19;60.49;98566.44;5109447;27;20392;-77
2021/06/28 04:02:03;;;;;;;27.92;15.40;;;;;;;25.07;60.99;98562.25;5109577;27;20388;-77
2021/06/28 04:04:50;;;;;;;29.15;16.60;;;;;;;25.04;61.53;98545.53;5109666;27;20395;-77
2021/06/28 04:07:31;;;;;;;25.75;15.25;;;;;;;25.17;61.10;98554.91;5109544;27;20649;-77
2021/06/28 04:10:11;;;;;;;29.38;16.40;;;;;;;25.20;60.70;98561.63;5109644;27;20924;-77
2021/06/28 04:12:52;;;;;;;29.42;15.70;;;;;;;25.18;60.86;98544.50;5109665;27;20388;-77
2021/06/28 04:15:32;;;;;;;27.08;15.85;;;;;;;25.45;59.90;98561.91;5109629;27;20927;-77
2021/06/28 04:18:10;;;;;;;25.37;16.10;;;;;;;25.39;59.99;98543.25;5085175;27;1386316;-77
2021/06/28 04:20:49;;;;;;;22.93;15.63;;;;;;;25.40;60.89;98533.66;5069672;27;1701829;-77
2021/06/28 04:23:28;;;;;;;24.67;16.63;;;;;;;25.35;60.45;98532.13;5109648;27;20781;-77
2021/06/28 04:26:06;;;;;;;53.93;18.23;;;;;;;25.42;60.79;98528.41;5108542;27;1416122;-77
2021/06/28 04:28:46;;;;;;;35.42;16.92;;;;;;;25.32;60.61;98530.19;5150859;27;20398;-77
2021/06/28 04:31:29;;;;;;;52.00;17.67;;;;;;;25.29;61.17;98526.25;5073708;27;1587200;-77
2021/06/28 04:34:09;;;;;;;28.02;16.95;;;;;;;25.35;60.72;98522.97;5069010;27;20399;-77
2021/06/28 04:36:49;;;;;;;29.60;16.17;;;;;;;25.51;60.69;98520.22;5171730;27;20134;-77
2021/06/28 04:39:28;;;;;;;35.05;17.98;;;;;;;25.59;60.27;98530.00;5109484;27;20395;-77
2021/06/28 04:42:08;;;;;;;83.53;19.20;;;;;;;25.48;61.12;98521.06;5109637;27;20388;-77
2021/06/28 04:44:48;;;;;;;35.75;17.80;;;;;;;25.59;60.99;98515.25;5109580;27;20415;-77
2021/06/28 04:47:29;;;;;;;27.20;18.40;;;;;;;25.54;60.16;98510.94;5109479;27;20397;-77
2021/06/28 04:50:12;;;;;;;31.48;18.13;;;;;;;25.44;61.33;98511.97;5130186;27;20131;-77
2021/06/28 04:52:53;;;;;;;31.05;18.17;;;;;;;25.52;60.85;98519.75;5109586;27;20931;-77
2021/06/28 04:55:33;;;;;;;33.67;17.95;;;;;;;25.58;61.25;98539.66;5109573;27;20955;-77
2021/06/28 04:58:13;;;;;;;28.35;18.40;;;;;;;25.72;60.68;98542.13;5109559;27;20404;-77
2021/06/28 05:00:54;;;;;;;30.38;17.52;;;;;;;25.94;59.58;98528.47;5171721;27;19927;-78
2021/06/28 05:03:36;;;;;;;48.00;17.05;;;;;;;26.21;58.98;98547.03;5068978;28;20428;-77
2021/06/28 05:06:16;;;;;;;40.28;17.60;;;;;;;26.60;57.44;98545.28;5109616;27;20395;-78
2021/06/28 05:08:55;;;;;;;26.75;17.65;;;;;;;26.78;56.96;98542.78;5069099;28;20398;-77
2021/06/28 05:11:37;;;;;;;26.00;16.55;;;;;;;26.87;56.89;98554.16;5109616;27;20403;-78
2021/06/28 05:14:17;;;;;;;31.77;18.83;;;;;;;26.96;57.10;98542.31;5049011;27;20419;-77
2021/06/28 05:16:57;;;;;;;29.65;16.50;;;;;;;27.21;55.78;98552.06;5068880;28;20768;-78
2021/06/28 05:19:37;;;;;;;21.27;17.27;;;;;;;27.17;56.19;98541.75;5130234;27;20431;-78
2021/06/28 05:22:18;;;;;;;23.60;17.30;;;;;;;27.07;55.77;98531.56;5109645;27;20399;-78
2021/06/28 05:24:58;;;;;;;25.58;18.60;;;;;;;27.17;56.26;98529.72;5069091;28;20394;-77
2021/06/28 05:27:37;;;;;;;25.80;18.33;;;;;;;27.05;56.39;98530.44;5130149;27;20653;-78
2021/06/28 05:30:18;;;;;;;27.05;16.58;;;;;;;27.25;55.78;98533.91;5079527;27;1426190;-78
2021/06/28 05:32:55;;;;;;;24.63;16.63;;;;;;;27.33;55.67;98534.50;5101091;27;1394654;-78
2021/06/28 05:35:36;;;;;;;23.05;17.65;;;;;;;27.39;55.31;98527.09;5130066;27;20426;-78
2021/06/28 05:38:15;;;;;;;22.67;17.00;;;;;;;27.64;55.04;98540.38;5109585;27;20874;-77
2021/06/28 05:40:55;;;;;;;23.02;18.92;;;;;;;27.69;55.24;98539.06;5109528;27;20912;-78
2021/06/28 05:44:04;;;;;;;21.85;19.05;;;;;;;27.78;55.48;98541.97;5109524;27;20144;-78
2021/06/28 05:46:44;;;;;;;24.42;18.33;;;;;;;27.77;54.57;98546.03;5109606;27;20773;-77
2021/06/28 05:49:24;;;;;;;31.02;19.75;;;;;;;27.72;55.94;98561.41;5049830;28;20408;-78
2021/06/28 05:52:04;;;;;;;24.23;20.40;;;;;;;27.76;55.86;98547.25;5109628;27;20392;-80
2021/06/28 05:54:44;;;;;;;37.95;21.80;;;;;;;27.73;55.34;98551.72;5109572;27;20761;-80
2021/06/28 05:57:24;;;;;;;31.52;21.25;;;;;;;27.68;54.88;98546.66;5109610;27;20404;-81
2021/06/28 06:00:09;;;;;;;30.83;20.17;;;;;;;27.94;55.04;98555.13;5109551;27;20385;-81
2021/06/28 06:02:52;;;;;;;24.70;19.75;;;;;;;28.01;54.60;98544.47;5109607;27;20403;-81
2021/06/28 06:05:33;;;;;;;31.20;20.95;;;;;;;28.12;54.82;98555.38;5171555;27;20602;-81
2021/06/28 06:08:13;;;;;;;39.63;21.88;;;;;;;28.05;55.80;98555.59;5150603;27;20143;-81
2021/06/28 06:10:56;;;;;;;28.65;20.73;;;;;;;28.00;55.64;98565.38;5109628;27;20396;-81
2021/06/28 06:13:34;;;;;;;40.20;22.75;;;;;;;28.02;55.24;98557.28;5150647;27;20296;-80
2021/06/28 06:16:16;;;;;;;30.02;20.77;;;;;;;27.92;55.84;98552.78;5048895;27;20746;-80
2021/06/28 06:18:56;;;;;;;36.25;21.30;;;;;;;27.92;55.20;98558.41;5109528;27;20757;-80
2021/06/28 06:21:36;;;;;;;61.42;22.10;;;;;;;28.14;54.82;98555.69;5109597;27;20392;-81
2021/06/28 06:24:19;;;;;;;37.30;19.90;;;;;;;28.20;54.58;98548.28;5109684;27;20377;-80
2021/06/28 06:26:58;;;;;;;23.40;20.30;;;;;;;28.52;54.39;98554.91;5109617;27;20948;-80
2021/06/28 06:29:39;;;;;;;31.45;20.52;;;;;;;28.45;53.60;98541.09;5089214;27;20963;-80
2021/06/28 06:32:18;;;;;;;23.30;19.08;;;;;;;28.62;53.63;98548.13;5110192;27;20415;-81
2021/06/28 06:34:58;;;;;;;37.80;23.38;;;;;;;28.64;54.69;98556.88;5109529;27;20407;-80
2021/06/28 06:37:36;;;;;;;25.00;22.00;;;;;;;28.59;53.91;98557.47;5098320;27;1587331;-80
2021/06/28 06:40:16;;;;;;;30.88;20.02;;;;;;;28.64;53.54;98559.69;5109597;27;20930;-78
2021/06/28 06:42:58;;;;;;;23.85;18.73;;;;;;;28.88;52.88;98554.44;5109626;27;20392;-81
2021/06/28 06:45:41;;;;;;;27.30;19.95;;;;;;;28.90;52.72;98551.94;5109587;27;20402;-80
2021/06/28 06:48:22;;;;;;;25.27;20.45;;;;;;;28.99;52.54;98548.44;5109565;27;20927;-80
2021/06/28 06:51:01;;;;;;;28.70;20.77;;;;;;;28.87;54.34;98544.41;5069082;28;20401;-80
2021/06/28 06:53:41;;;;;;;27.55;21.23;;;;;;;28.83;53.53;98540.94;5089316;27;20841;-81
2021/06/28 06:56:22;;;;;;;33.05;21.92;;;;;;;29.04;54.11;98570.41;5069001;28;20414;-80
2021/06/28 06:59:03;;;;;;;32.63;21.80;;;;;;;28.97;54.10;98567.78;5068847;27;20394;-80
2021/06/28 07:01:42;;;;;;;33.95;22.75;;;;;;;29.01;54.54;98557.25;5109538;27;20392;-80
2021/06/28 07:04:22;;;;;;;33.75;20.75;;;;;;;29.15;53.13;98565.16;5109581;27;20384;-80
2021/06/28 07:07:02;;;;;;;30.85;20.10;;;;;;;29.25;52.16;98555.53;5109642;27;20962;-81
2021/06/28 07:09:45;;;;;;;68.35;21.88;;;;;;;29.32;52.55;98571.38;5109638;27;20407;-80
2021/06/28 07:12:25;;;;;;;28.05;20.95;;;;;;;29.44;52.03;98567.72;5109582;27;20392;-81
2021/06/28 07:15:04;;;;;;;32.97;21.73;;;;;;;29.37;53.26;98573.63;5075662;27;1535792;-80
2021/06/28 07:17:45;;;;;;;25.65;20.92;;;;;;;29.37;52.28;98568.00;5109609;27;20396;-80
2021/06/28 07:20:24;;;;;;;30.25;20.45;;;;;;;29.42;52.10;98563.78;5109330;27;20392;-80
2021/06/28 07:23:04;;;;;;;29.13;20.17;;;;;;;29.59;51.32;98573.59;5109763;27;20403;-80
2021/06/28 07:25:45;;;;;;;32.92;21.33;;;;;;;29.48;52.77;98570.41;5069078;28;20390;-81
2021/06/28 07:28:25;;;;;;;26.63;23.13;;;;;;;29.23;54.10;98566.47;5109550;27;20404;-80
2021/06/28 07:31:07;;;;;;;36.70;21.90;;;;;;;29.27;53.77;98586.84;5109603;27;20388;-80
2021/06/28 07:33:48;;;;;;;26.92;21.48;;;;;;;29.42;53.41;98583.50;5069089;27;20422;-79
2021/06/28 07:36:35;;;;;;;32.20;20.70;;;;;;;29.49;52.85;98572.75;5109935;27;20354;-86
2021/06/28 07:49:39;;;;;;;41.75;22.02;;;;;;;29.88;53.24;98592.25;5079293;27;1549743;-92
2021/06/28 07:52:18;;;;;;;28.45;21.45;;;;;;;29.91;53.11;98582.88;5110150;27;20784;-87
2021/06/28 07:55:10;;;;;;;25.08;19.70;;;;;;;30.05;50.91;98589.97;5172048;27;20332;-87
2021/06/28 07:58:01;;;;;;;24.95;19.42;;;;;;;30.12;50.13;98579.19;5109940;27;20384;-91
2021/06/28 08:00:43;;;;;;;26.42;19.20;;;;;;;30.26;52.34;98591.19;5110326;27;20750;-93
2021/06/28 08:03:22;;;;;;;31.70;21.27;;;;;;;30.24;52.21;98579.59;5109960;27;20393;-92
2021/06/28 08:06:02;;;;;;;26.65;20.25;;;;;;;30.18;50.16;98574.56;5130639;27;20383;-86
2021/06/28 08:19:06;;;;;;;27.60;19.15;;;;;;;30.46;49.62;98568.22;5129877;27;20382;-81
2021/06/28 08:21:47;;;;;;;35.53;19.27;;;;;;;30.40;49.88;98551.91;5048921;27;20935;-81
2021/06/28 08:24:28;;;;;;;22.90;19.50;;;;;;;30.41;50.06;98558.34;5076003;27;1528218;-81
2021/06/28 08:27:09;;;;;;;22.35;18.65;;;;;;;30.41;49.98;98542.19;5110151;27;20393;-79
2021/06/28 08:29:49;;;;;;;22.38;18.63;;;;;;;30.46;49.92;98531.53;5109658;27;20388;-79
2021/06/28 08:32:28;;;;;;;22.00;18.73;;;;;;;30.44;50.45;98543.31;5076576;27;1506139;-72
2021/06/28 08:35:06;;;;;;;21.37;19.07;;;;;;;30.48;50.85;98529.81;5079127;27;1439493;-72
2021/06/28 08:37:46;;;;;;;39.50;21.40;;;;;;;30.45;53.98;98518.69;5171627;27;20149;-74
2021/06/28 08:40:27;;;;;;;33.90;19.77;;;;;;;30.43;51.25;98514.31;5109438;27;20388;-74
2021/06/28 08:43:08;;;;;;;30.27;20.02;;;;;;;30.53;52.69;98497.38;5068981;28;20395;-74
2021/06/28 08:45:50;;;;;;;29.17;19.63;;;;;;;30.58;51.81;98483.47;5109536;27;20395;-74
2021/06/28 08:48:30;;;;;;;32.42;19.80;;;;;;;30.51;52.21;98488.63;5109501;27;20920;-72
2021/06/28 08:51:10;;;;;;;40.78;19.98;;;;;;;30.70;51.86;98492.25;5068599;28;20403;-74
2021/06/28 08:53:53;;;;;;;35.93;20.17;;;;;;;30.87;49.90;98477.38;5077875;27;1467225;-72
2021/06/28 08:56:36;;;;;;;31.50;18.73;;;;;;;30.93;49.17;98466.25;5109552;27;20136;-72
2021/06/28 08:59:15;;;;;;;24.05;18.88;;;;;;;30.91;49.69;98462.31;5109710;27;20403;-74
2021/06/28 09:01:57;;;;;;;32.45;19.33;;;;;;;30.72;50.12;98447.41;5109517;27;20384;-74
2021/06/28 09:04:37;;;;;;;32.90;19.70;;;;;;;30.69;49.76;98439.88;5109528;27;20407;-72
2021/06/28 09:07:20;;;;;;;30.20;18.58;;;;;;;30.61;49.71;98439.44;5109595;27;20389;-72
2021/06/28 09:09:59;;;;;;;21.30;18.33;;;;;;;30.49;49.67;98446.78;5109605;27;20781;-72
2021/06/28 09:12:50;;;;;;;29.02;18.70;;;;;;;30.44;49.98;98464.34;5171563;27;20754;-72
2021/06/28 09:15:41;;;;;;;58.22;22.23;;;;;;;30.37;52.56;98461.84;5069122;28;20394;-73
2021/06/28 09:18:25;;;;;;;27.83;18.40;;;;;;;30.25;50.69;98449.44;5069110;28;20403;-74
2021/06/28 09:21:08;;;;;;;49.95;21.08;;;;;;;30.09;55.24;98436.38;5150724;27;20146;-74
2021/06/28 09:23:48;;;;;;;41.25;25.58;;;;;;;29.73;59.72;98422.97;5129980;27;20402;-74
2021/06/28 09:26:36;;;;;;;41.72;23.42;;;;;;;29.56;60.27;98444.19;5109618;27;20908;-74
2021/06/28 09:29:15;;;;;;;33.10;24.58;;;;;;;29.31;60.81;98443.13;5109576;27;20388;-74
2021/06/28 09:31:56;;;;;;;36.22;23.40;;;;;;;29.28;58.93;98460.94;5109567;27;20388;-74
2021/06/28 09:34:37;;;;;;;29.92;23.13;;;;;;;29.17;60.88;98478.25;5109481;27;20589;-74
2021/06/28 09:37:25;;;;;;;29.95;19.52;;;;;;;29.05;58.76;98515.69;5109535;27;20392;-78
2021/06/28 09:40:07;;;;;;;31.52;22.27;;;;;;;28.54;61.16;98547.59;5130015;27;20368;-77
2021/06/28 09:42:45;;;;;;;30.27;23.52;;;;;;;28.05;64.17;98538.75;5099042;27;1564215;-77
2021/06/28 09:45:25;;;;;;;31.00;20.05;;;;;;;27.55;62.51;98566.31;5109426;27;20391;-77
2021/06/28 09:48:27;;;;;;;25.38;11.10;;;;;;;26.59;62.03;98580.13;5110077;27;20431;-77
2021/06/28 09:51:29;;;;;;;14.93;8.02;;;;;;;25.57;64.46;98596.06;5068917;27;20822;-77
2021/06/28 09:54:39;;;;;;;17.52;5.53;;;;;;;24.90;66.60;98565.38;5129832;27;20400;-78
2021/06/28 09:57:38;;;;;;;22.65;7.50;;;;;;;24.47;67.45;98539.00;5192833;27;20418;-77
2021/06/28 10:00:52;;;;;;;22.77;10.45;;;;;;;24.11;69.80;98539.56;5148497;27;20802;-78
2021/06/28 10:03:51;;;;;;;15.25;8.48;;;;;;;23.90;69.93;98507.16;5192902;27;20414;-77
2021/06/28 10:07:22;;;;;;;15.52;9.10;;;;;;;23.74;70.08;98509.81;5130845;27;20930;-77
2021/06/28 10:10:31;;;;;;;15.40;8.98;;;;;;;23.71;69.91;98574.03;5131870;27;20400;-77
2021/06/28 10:13:30;;;;;;;24.92;10.00;;;;;;;23.51;70.67;98621.28;5089456;27;20506;-77
2021/06/28 10:16:30;;;;;;;34.42;11.88;;;;;;;23.51;72.83;98665.94;5192421;27;20405;-77
2021/06/28 10:19:28;;;;;;;23.85;10.88;;;;;;;23.39;72.53;98681.22;5150677;27;20215;-77
2021/06/28 10:22:21;;;;;;;19.73;10.95;;;;;;;23.24;72.92;98674.19;5091178;27;20448;-77
2021/06/28 10:24:59;;;;;;;23.40;11.52;;;;;;;23.24;73.14;98669.41;4616830;27;15076910;-77
2021/06/28 10:28:07;;;;;;;25.42;13.38;;;;;;;23.10;73.85;98653.63;5131331;27;20454;-76
2021/06/28 10:31:08;;;;;;;27.98;14.25;;;;;;;23.01;74.68;98607.91;5089969;27;20460;-77
2021/06/28 10:34:06;;;;;;;23.50;12.55;;;;;;;23.06;73.28;98599.91;5192553;27;20405;-77
2021/06/28 10:37:03;;;;;;;27.92;15.20;;;;;;;23.17;75.08;98617.28;5089768;27;20411;-77
2021/06/28 10:40:01;;;;;;;29.83;13.73;;;;;;;23.29;74.22;98627.13;5120897;27;20498;-77
2021/06/28 10:42:59;;;;;;;26.98;13.93;;;;;;;23.02;74.07;98604.72;5089921;27;20414;-77
2021/06/28 10:45:46;;;;;;;24.40;12.95;;;;;;;22.79;74.46;98618.47;5089149;27;20808;-78
2021/06/28 10:48:46;;;;;;;29.83;14.82;;;;;;;22.49;76.39;98608.75;5129750;27;20139;-77
2021/06/28 10:51:49;;;;;;;25.58;15.23;;;;;;;22.44;77.50;98609.97;5068893;28;20416;-77
2021/06/28 10:54:36;;;;;;;28.05;14.65;;;;;;;22.39;77.05;98593.72;5068954;28;20056;-77
2021/06/28 10:57:39;;;;;;;28.40;12.77;;;;;;;22.37;76.70;98601.69;5069237;28;20043;-77
2021/06/28 11:01:02;;;;;;;23.42;14.10;;;;;;;22.51;75.20;98615.50;5053696;28;20140;-77
2021/06/28 11:04:05;;;;;;;25.75;11.68;;;;;;;22.48;73.68;98585.69;5067727;28;20408;-76
2021/06/28 11:07:02;;;;;;;32.63;16.08;;;;;;;22.67;75.64;98577.97;5068723;28;20055;-77
2021/06/28 11:09:59;;;;;;;30.35;16.70;;;;;;;22.74;76.82;98572.31;5068632;28;20075;-76
2021/06/28 11:12:43;;;;;;;24.90;16.70;;;;;;;22.77;75.75;98574.28;5068731;28;20416;-79
2021/06/28 11:15:31;;;;;;;30.25;16.08;;;;;;;22.80;77.25;98567.88;5068788;28;20106;-79
2021/06/28 11:18:29;;;;;;;26.05;14.30;;;;;;;22.83;76.04;98580.19;5068481;28;20075;-79
2021/06/28 11:21:41;;;;;;;25.00;14.45;;;;;;;22.91;75.92;98578.91;5053592;28;20143;-79
2021/06/28 11:24:08;;;;;;;20.52;12.60;;;;;;;22.96;74.00;98570.13;5068208;28;20045;-79
2021/06/28 11:26:35;;;;;;;24.73;14.77;;;;;;;22.91;74.81;98551.84;5067779;28;20048;-79
2021/06/28 11:29:51;;;;;;;27.63;14.32;;;;;;;23.05;74.97;98564.88;5131129;27;20429;-79
2021/06/28 11:32:32;;;;;;;17.40;12.00;;;;;;;23.15;72.48;98561.16;4509333;27;18621144;-79
2021/06/28 11:34:59;;;;;;;24.02;11.52;;;;;;;23.09;72.88;98542.53;5150467;27;20057;-79
2021/06/28 11:37:32;;;;;;;21.70;11.98;;;;;;;23.09;72.65;98540.53;5150866;27;20062;-80
2021/06/28 11:40:03;;;;;;;17.13;12.73;;;;;;;23.12;72.57;98536.13;5150025;27;20039;-79
2021/06/28 11:43:03;;;;;;;18.20;12.18;;;;;;;22.98;72.82;98518.34;5129055;27;20341;-79
2021/06/28 11:46:02;;;;;;;16.02;12.02;;;;;;;23.08;74.19;98532.56;5192723;27;20767;-79
2021/06/28 11:49:04;;;;;;;22.23;12.20;;;;;;;23.14;74.10;98542.06;5192601;27;20398;-79
2021/06/28 11:52:16;;;;;;;21.17;13.50;;;;;;;23.37;73.77;98544.16;5148176;27;20439;-79
2021/06/28 11:55:13;;;;;;;22.60;12.75;;;;;;;23.54;73.33;98551.53;5192443;27;20543;-79
2021/06/28 11:58:07;;;;;;;27.92;13.55;;;;;;;23.62;73.87;98543.84;5091338;27;20494;-78
2021/06/28 12:01:06;;;;;;;23.42;12.80;;;;;;;23.84;72.79;98552.72;5128794;27;20394;-78
2021/06/28 12:04:01;;;;;;;18.92;13.00;;;;;;;24.07;72.09;98563.13;5149799;27;20444;-78
2021/06/28 12:06:41;;;;;;;27.48;14.02;;;;;;;24.21;72.62;98534.22;4533994;27;17911595;-78
2021/06/28 12:09:37;;;;;;;20.65;12.52;;;;;;;24.44;69.54;98531.47;5149281;27;20130;-79
2021/06/28 12:12:35;;;;;;;19.52;13.88;;;;;;;24.33;69.64;98528.81;5192550;27;20429;-77
2021/06/28 12:15:34;;;;;;;35.65;15.02;;;;;;;24.66;70.51;98542.25;5192793;27;20487;-77
2021/06/28 12:18:33;;;;;;;30.80;14.35;;;;;;;24.98;70.66;98550.84;5089460;27;20461;-77
2021/06/28 12:21:31;;;;;;;17.10;12.32;;;;;;;25.13;66.94;98536.59;5089381;27;20410;-77
2021/06/28 12:24:32;;;;;;;24.52;12.05;;;;;;;25.11;68.45;98572.56;5118758;27;20989;-77
2021/06/28 12:27:30;;;;;;;14.77;10.38;;;;;;;25.07;68.44;98593.00;5128979;27;20349;-77
2021/06/28 12:30:13;;;;;;;22.35;12.13;;;;;;;24.93;68.99;98612.81;5069040;28;20866;-77
2021/06/28 12:32:59;;;;;;;27.40;14.35;;;;;;;24.76;69.21;98620.31;5109505;27;20388;-77
2021/06/28 12:35:39;;;;;;;25.45;16.65;;;;;;;24.47;70.84;98594.06;5109565;27;20371;-77
2021/06/28 12:38:30;;;;;;;32.25;18.92;;;;;;;24.19;72.35;98570.94;5089066;27;20395;-79
2021/06/28 12:41:11;;;;;;;27.33;18.88;;;;;;;24.11;74.06;98555.53;5109661;27;20940;-77